Time;durP1;ratioP1;P1;durP2;ratioP2;P2;SDS_P1;SDS_P2;PMS_P1;PMS_P2;Temp;Humidity;BMP_temperature;BMP_pressure;BME280_temperature;BME280_humidity;BME280_pressure;Samples;Min_cycle;Max_cycle;Signal;HPM_P1;HPM_P2
2024/01/24 00:02:07;;;;;;;8.20;1.13;;;8.50;99.90;;;;;;5050758;28;20021;-70
2024/01/24 00:04:34;;;;;;;3.83;1.00;;;8.50;99.90;;;;;;5049778;28;20021;-71
2024/01/24 00:07:00;;;;;;;4.38;1.00;;;8.50;99.90;;;;;;5049347;28;20021;-71
2024/01/24 00:09:27;;;;;;;4.57;1.20;;;8.60;99.90;;;;;;5044502;28;20021;-70
2024/01/24 00:11:54;;;;;;;6.43;1.33;;;8.80;99.90;;;;;;5047260;28;20021;-71
2024/01/24 00:14:19;;;;;;;5.30;1.05;;;8.80;99.90;;;;;;5050050;28;20025;-70
2024/01/24 00:16:45;;;;;;;7.07;1.52;;;8.70;99.90;;;;;;5031955;28;20017;-70
2024/01/24 00:19:11;;;;;;;9.80;2.17;;;8.80;99.90;;;;;;5030049;28;20370;-70
2024/01/24 00:21:37;;;;;;;4.00;1.15;;;8.90;99.90;;;;;;5028143;28;20017;-71
2024/01/24 00:24:03;;;;;;;7.82;1.20;;;8.90;99.90;;;;;;5050027;28;20477;-70
2024/01/24 00:26:28;;;;;;;5.47;1.40;;;9.00;99.90;;;;;;5045207;28;20052;-70
2024/01/24 00:28:54;;;;;;;7.53;1.33;;;9.10;99.90;;;;;;5049372;28;20033;-70
2024/01/24 00:31:19;;;;;;;4.93;1.05;;;9.20;99.90;;;;;;5045183;28;20100;-70
2024/01/24 00:33:45;;;;;;;7.45;1.30;;;9.30;99.90;;;;;;5041091;28;20110;-71
2024/01/24 00:36:11;;;;;;;4.13;0.70;;;9.30;99.90;;;;;;5044323;28;20021;-70
2024/01/24 00:38:36;;;;;;;5.57;1.33;;;9.20;99.90;;;;;;5040242;28;20372;-71
2024/01/24 00:41:02;;;;;;;6.07;0.93;;;9.20;99.90;;;;;;5027056;28;20026;-71
2024/01/24 00:43:28;;;;;;;4.82;1.60;;;9.20;99.90;;;;;;5040991;28;20118;-71
2024/01/24 00:45:53;;;;;;;5.20;0.95;;;9.20;99.90;;;;;;5031300;28;20116;-71
2024/01/24 00:48:19;;;;;;;6.60;1.17;;;9.30;99.90;;;;;;5045306;28;20013;-71
2024/01/24 00:50:45;;;;;;;8.27;1.20;;;9.30;99.90;;;;;;5043128;28;20486;-70
2024/01/24 00:53:18;;;;;;;3.67;1.00;;;9.30;99.90;;;;;;5044923;28;20025;-71
2024/01/24 00:55:44;;;;;;;7.57;1.17;;;9.40;99.90;;;;;;5030670;28;20179;-71
2024/01/24 00:58:09;;;;;;;10.02;1.27;;;9.50;99.90;;;;;;5044155;28;20099;-70
2024/01/24 01:00:35;;;;;;;8.25;1.23;;;9.50;99.90;;;;;;5044534;28;20109;-70
2024/01/24 01:03:01;;;;;;;6.97;0.95;;;9.50;99.90;;;;;;5046169;28;20045;-70
2024/01/24 01:05:26;;;;;;;5.72;1.35;;;9.50;99.90;;;;;;5041679;28;20048;-70
2024/01/24 01:07:52;;;;;;;3.95;0.80;;;9.50;99.90;;;;;;5030284;28;20048;-71
2024/01/24 01:10:18;;;;;;;3.28;0.93;;;9.50;99.90;;;;;;5042927;28;20443;-70
2024/01/24 01:12:44;;;;;;;6.50;1.20;;;9.40;99.90;;;;;;5042500;28;20079;-71
2024/01/24 01:15:09;;;;;;;9.60;1.38;;;9.40;99.90;;;;;;5044658;28;20049;-71
2024/01/24 01:17:36;;;;;;;3.58;0.88;;;9.40;99.90;;;;;;5043582;28;20412;-71
2024/01/24 01:20:03;;;;;;;4.40;1.27;;;9.40;99.90;;;;;;5049396;28;20031;-71
2024/01/24 01:22:29;;;;;;;3.80;0.93;;;9.40;99.90;;;;;;5049808;28;20052;-71
2024/01/24 01:24:54;;;;;;;5.68;1.25;;;9.60;99.90;;;;;;5048306;28;20189;-71
2024/01/24 01:27:20;;;;;;;5.18;0.98;;;9.60;99.90;;;;;;5043539;28;20013;-71
2024/01/24 01:29:45;;;;;;;4.88;1.23;;;9.50;99.90;;;;;;5043409;28;20032;-71
2024/01/24 01:32:11;;;;;;;5.30;1.00;;;9.60;99.90;;;;;;5038368;28;20039;-71
2024/01/24 01:34:37;;;;;;;5.93;1.20;;;9.60;99.90;;;;;;5041333;28;20112;-71
2024/01/24 01:37:02;;;;;;;4.45;1.02;;;9.60;99.90;;;;;;5047477;28;20035;-71
2024/01/24 01:39:28;;;;;;;4.68;1.10;;;9.60;99.90;;;;;;5041348;28;20057;-71
2024/01/24 01:41:55;;;;;;;8.27;1.48;;;9.60;99.90;;;;;;5044037;28;20093;-71
2024/01/24 01:44:21;;;;;;;5.28;1.00;;;9.60;99.90;;;;;;5037237;28;20025;-71
2024/01/24 01:46:47;;;;;;;3.63;1.02;;;9.50;99.90;;;;;;5025196;28;20018;-70
2024/01/24 01:49:14;;;;;;;6.78;1.00;;;9.50;99.90;;;;;;5046469;28;20048;-71
2024/01/24 01:51:40;;;;;;;2.83;0.93;;;9.50;99.90;;;;;;5028733;28;20029;-71
2024/01/24 01:54:07;;;;;;;4.03;0.73;;;9.50;99.90;;;;;;5047106;28;20059;-71
2024/01/24 01:56:33;;;;;;;3.20;0.85;;;9.50;99.90;;;;;;5046705;28;20087;-70
2024/01/24 01:58:59;;;;;;;4.35;0.57;;;9.50;99.90;;;;;;5048282;28;20513;-70
2024/01/24 02:01:26;;;;;;;5.60;1.27;;;9.50;99.90;;;;;;5047653;28;20019;-70
2024/01/24 02:03:53;;;;;;;5.70;1.08;;;9.50;99.90;;;;;;5047791;28;20025;-71
2024/01/24 02:06:19;;;;;;;6.00;0.95;;;9.50;99.90;;;;;;5049474;28;20070;-71
2024/01/24 02:08:45;;;;;;;3.40;0.88;;;9.50;99.90;;;;;;5046177;28;20025;-70
2024/01/24 02:11:11;;;;;;;4.60;0.98;;;9.40;99.90;;;;;;5048628;28;20040;-70
2024/01/24 02:13:38;;;;;;;3.88;0.60;;;9.40;99.90;;;;;;5029172;28;20025;-71
2024/01/24 02:16:04;;;;;;;5.47;0.80;;;9.40;99.90;;;;;;5046264;28;20151;-71
2024/01/24 02:18:31;;;;;;;6.57;1.35;;;9.40;99.90;;;;;;5048840;28;20025;-71
2024/01/24 02:20:56;;;;;;;5.13;1.00;;;9.30;99.90;;;;;;5048801;28;20048;-70
2024/01/24 02:23:25;;;;;;;5.43;1.00;;;9.30;99.90;;;;;;5049078;28;20494;-70
2024/01/24 02:25:52;;;;;;;5.97;0.90;;;9.30;99.90;;;;;;5030140;28;20410;-70
2024/01/24 02:28:18;;;;;;;5.95;1.10;;;9.30;99.90;;;;;;5049062;28;20108;-70
2024/01/24 02:30:44;;;;;;;5.00;0.80;;;9.30;99.90;;;;;;5048693;28;20031;-70
2024/01/24 02:33:10;;;;;;;5.55;0.85;;;9.20;99.90;;;;;;5030580;28;20025;-70
2024/01/24 02:35:36;;;;;;;4.22;1.00;;;9.10;99.90;;;;;;5048526;28;20112;-70
2024/01/24 02:38:02;;;;;;;3.58;0.65;;;9.30;99.90;;;;;;5048082;28;20103;-69
2024/01/24 02:40:28;;;;;;;4.47;0.73;;;9.30;99.90;;;;;;5049558;28;20029;-69
2024/01/24 02:42:53;;;;;;;3.60;1.02;;;9.30;99.90;;;;;;5047180;28;20025;-69
2024/01/24 02:45:19;;;;;;;3.75;0.75;;;9.40;99.90;;;;;;5031181;28;20017;-69
2024/01/24 02:47:45;;;;;;;4.78;0.80;;;9.40;99.90;;;;;;5047804;28;20508;-70
2024/01/24 02:50:12;;;;;;;7.47;0.75;;;9.50;99.90;;;;;;5049580;28;20021;-71
2024/01/24 02:52:38;;;;;;;3.53;0.88;;;9.60;99.90;;;;;;5048317;28;20021;-70
2024/01/24 02:55:04;;;;;;;4.70;0.80;;;9.50;99.90;;;;;;5049046;28;20025;-69
2024/01/24 02:57:30;;;;;;;3.47;0.88;;;9.60;99.90;;;;;;5048585;28;20087;-69
2024/01/24 02:59:55;;;;;;;2.28;0.73;;;9.60;99.90;;;;;;5045819;28;20025;-70
2024/01/24 03:02:21;;;;;;;5.85;0.75;;;9.70;99.90;;;;;;5052501;28;20100;-69
2024/01/24 03:04:47;;;;;;;6.45;1.52;;;9.80;99.90;;;;;;5033415;28;20033;-70
2024/01/24 03:07:13;;;;;;;6.00;0.95;;;9.90;99.90;;;;;;5052768;28;20017;-70
2024/01/24 03:09:38;;;;;;;4.88;1.05;;;9.90;99.90;;;;;;5046810;28;20021;-70
2024/01/24 03:12:04;;;;;;;5.53;1.40;;;10.00;99.90;;;;;;5049326;28;20021;-70
2024/01/24 03:14:31;;;;;;;4.10;0.90;;;9.90;99.90;;;;;;5051710;28;20398;-70
2024/01/24 03:16:56;;;;;;;2.10;0.45;;;9.90;99.90;;;;;;5045208;28;20087;-70
2024/01/24 03:19:22;;;;;;;4.40;0.90;;;9.90;99.90;;;;;;5050385;28;20025;-70
2024/01/24 03:21:48;;;;;;;4.85;1.08;;;9.90;99.90;;;;;;5047805;28;20028;-70
2024/01/24 03:24:14;;;;;;;6.22;1.33;;;9.90;99.90;;;;;;5051951;28;20017;-70
2024/01/24 03:26:39;;;;;;;4.32;0.90;;;10.00;99.90;;;;;;5023908;28;20572;-70
2024/01/24 03:29:05;;;;;;;5.22;1.13;;;9.90;99.90;;;;;;5048050;28;20850;-70
2024/01/24 03:31:30;;;;;;;3.10;0.75;;;10.20;99.90;;;;;;5052087;28;20036;-70
2024/01/24 03:33:56;;;;;;;3.08;0.77;;;10.30;99.90;;;;;;5032324;28;20394;-70
2024/01/24 03:36:22;;;;;;;4.05;1.10;;;10.20;99.90;;;;;;5052524;28;20028;-70
2024/01/24 03:38:50;;;;;;;4.55;0.93;;;;;;;;;;5050404;28;20037;-70
2024/01/24 03:41:18;;;;;;;4.07;0.80;;;;;;;;;;5051882;28;20052;-69
2024/01/24 03:43:44;;;;;;;4.18;0.95;;;;;;;;;;5050068;28;20071;-70
2024/01/24 03:46:12;;;;;;;3.08;0.80;;;;;;;;;;5049935;28;20053;-70
2024/01/24 03:48:38;;;;;;;4.85;0.80;;;;;;;;;;5050770;28;20032;-70
2024/01/24 03:51:10;;;;;;;6.97;1.23;;;;;;;;;;5048535;28;20060;-70
2024/01/24 03:53:36;;;;;;;4.68;0.80;;;;;;;;;;5048852;28;20048;-70
2024/01/24 03:56:02;;;;;;;3.60;0.55;;;;;;;;;;5051714;28;20021;-70
2024/01/24 03:58:28;;;;;;;4.28;0.95;;;;;;;;;;5051155;28;20021;-70
2024/01/24 04:00:55;;;;;;;7.05;0.90;;;;;;;;;;5050846;28;20270;-69
2024/01/24 04:03:21;;;;;;;3.75;1.10;;;10.70;99.90;;;;;;5050681;28;20100;-69
2024/01/24 04:05:47;;;;;;;6.95;1.25;;;10.70;99.90;;;;;;5050829;28;20071;-70
2024/01/24 04:08:12;;;;;;;5.10;0.95;;;10.70;99.90;;;;;;5046568;28;20021;-70
2024/01/24 04:10:38;;;;;;;5.10;1.08;;;10.70;99.90;;;;;;5051012;28;20359;-70
2024/01/24 04:13:04;;;;;;;2.15;0.63;;;10.70;99.90;;;;;;5050961;28;20572;-70
2024/01/24 04:15:29;;;;;;;2.40;0.90;;;10.70;99.90;;;;;;5051569;28;20378;-70
2024/01/24 04:17:55;;;;;;;5.57;1.45;;;10.70;99.90;;;;;;5050630;28;20025;-70
2024/01/24 04:20:21;;;;;;;3.67;1.15;;;10.70;99.90;;;;;;5051842;28;20109;-70
2024/01/24 04:22:46;;;;;;;8.00;1.23;;;10.70;99.90;;;;;;5032049;28;20021;-70
2024/01/24 04:25:12;;;;;;;3.63;0.80;;;10.70;99.90;;;;;;5042579;28;20048;-70
2024/01/24 04:27:38;;;;;;;7.82;1.33;;;10.80;99.90;;;;;;5049985;28;20097;-71
2024/01/24 04:30:05;;;;;;;6.88;1.50;;;10.80;99.90;;;;;;5033342;28;20082;-70
2024/01/24 04:32:31;;;;;;;5.63;1.40;;;10.80;99.90;;;;;;5033524;28;20033;-70
2024/01/24 04:34:57;;;;;;;5.60;1.55;;;10.90;99.90;;;;;;5049817;28;20126;-70
2024/01/24 04:37:23;;;;;;;6.10;1.20;;;10.90;99.90;;;;;;5032839;28;20489;-70
2024/01/24 04:39:50;;;;;;;3.72;1.10;;;10.80;99.90;;;;;;5049323;28;20029;-70
2024/01/24 04:42:15;;;;;;;7.45;2.10;;;10.80;99.90;;;;;;5046474;28;20140;-71
2024/01/24 04:44:41;;;;;;;8.57;1.67;;;10.80;99.90;;;;;;5049676;28;20111;-70
2024/01/24 04:47:07;;;;;;;8.07;1.63;;;10.80;99.90;;;;;;5050780;28;20511;-70
2024/01/24 04:49:33;;;;;;;4.10;1.15;;;10.90;99.90;;;;;;5049758;28;20151;-70
2024/01/24 04:51:58;;;;;;;5.47;1.42;;;10.90;99.90;;;;;;5049827;28;20029;-70
2024/01/24 04:54:24;;;;;;;3.53;1.15;;;10.80;99.90;;;;;;5049484;28;20025;-70
2024/01/24 04:56:51;;;;;;;4.88;0.95;;;10.90;99.90;;;;;;5042346;28;20485;-70
2024/01/24 04:59:16;;;;;;;4.00;1.05;;;10.80;99.90;;;;;;5041804;28;20170;-69
2024/01/24 05:01:43;;;;;;;4.80;1.02;;;10.90;99.90;;;;;;5049542;28;20029;-70
2024/01/24 05:04:09;;;;;;;3.50;1.10;;;10.90;99.90;;;;;;5049853;28;20017;-69
2024/01/24 05:06:35;;;;;;;6.20;1.48;;;10.90;99.90;;;;;;5032122;28;20030;-69
2024/01/24 05:09:02;;;;;;;4.63;1.08;;;10.90;99.90;;;;;;5049221;28;20028;-70
2024/01/24 05:11:28;;;;;;;5.50;1.08;;;10.90;99.90;;;;;;5050088;28;20021;-69
2024/01/24 05:13:55;;;;;;;5.88;1.23;;;11.00;99.90;;;;;;5048589;28;20110;-69
2024/01/24 05:16:24;;;;;;;3.95;1.02;;;;;;;;;;5050587;28;20540;-69
2024/01/24 05:18:53;;;;;;;7.22;1.50;;;;;;;;;;5048513;28;20029;-69
2024/01/24 05:21:22;;;;;;;2.40;0.80;;;;;;;;;;5049848;28;20364;-69
2024/01/24 05:23:51;;;;;;;4.50;0.93;;;;;;;;;;5048451;28;20018;-70
2024/01/24 05:26:19;;;;;;;5.70;1.40;;;;;;;;;;5040045;28;20091;-70
2024/01/24 05:28:48;;;;;;;4.30;1.00;;;;;;;;;;5048770;28;20025;-70
2024/01/24 05:31:21;;;;;;;2.85;0.93;;;;;;;;;;5050033;28;20029;-70
2024/01/24 05:33:48;;;;;;;5.57;1.27;;;;;;;;;;5046660;28;20017;-70
2024/01/24 05:36:14;;;;;;;5.47;1.20;;;11.30;99.90;;;;;;5050166;28;20032;-70
2024/01/24 05:38:47;;;;;;;3.83;0.90;;;;;;;;;;5048776;28;20025;-70
2024/01/24 05:41:15;;;;;;;4.35;0.88;;;;;;;;;;5046406;28;20091;-70
2024/01/24 05:43:42;;;;;;;3.38;0.98;;;;;;;;;;5048545;28;20029;-70
2024/01/24 05:46:07;;;;;;;4.35;0.95;;;11.40;99.90;;;;;;5049768;28;20017;-70
2024/01/24 05:48:34;;;;;;;8.07;1.20;;;11.50;99.90;;;;;;5049173;28;20375;-70
2024/01/24 05:51:01;;;;;;;3.58;1.30;;;11.60;99.90;;;;;;5048910;28;20032;-70
2024/01/24 05:53:27;;;;;;;7.40;1.33;;;11.60;99.90;;;;;;5048495;28;20083;-70
2024/01/24 05:55:53;;;;;;;3.70;0.88;;;11.70;99.90;;;;;;5048842;28;20033;-69
2024/01/24 05:58:19;;;;;;;3.28;0.93;;;11.70;99.90;;;;;;5049118;28;20025;-69
2024/01/24 06:00:45;;;;;;;3.15;0.95;;;11.70;99.90;;;;;;5048819;28;20094;-71
2024/01/24 06:03:12;;;;;;;4.10;2.00;;;11.80;99.90;;;;;;5031152;28;20063;-80
2024/01/24 06:05:38;;;;;;;3.25;1.00;;;11.80;99.90;;;;;;5047754;28;20016;-81
2024/01/24 06:08:05;;;;;;;4.10;0.90;;;11.90;99.90;;;;;;5043439;28;20020;-85
2024/01/24 06:10:31;;;;;;;5.25;1.20;;;11.90;99.90;;;;;;5049888;28;20449;-74
2024/01/24 06:12:57;;;;;;;9.02;1.55;;;11.90;99.90;;;;;;5031085;28;20108;-73
2024/01/24 06:15:22;;;;;;;5.07;1.08;;;11.90;99.90;;;;;;5033723;28;20035;-74
2024/01/24 06:17:50;;;;;;;5.88;1.20;;;11.90;99.90;;;;;;5045762;28;20485;-73
2024/01/24 06:20:15;;;;;;;4.30;1.02;;;12.00;99.90;;;;;;5049407;28;20075;-73
2024/01/24 06:22:41;;;;;;;7.60;0.90;;;11.90;99.90;;;;;;5030638;28;20025;-74
2024/01/24 06:25:08;;;;;;;4.68;0.85;;;12.00;99.90;;;;;;5043682;28;20540;-72
2024/01/24 06:27:36;;;;;;;2.95;0.85;;;12.00;99.90;;;;;;5047854;28;20013;-73
2024/01/24 06:30:04;;;;;;;3.75;1.02;;;12.00;99.90;;;;;;5048764;28;20025;-74
2024/01/24 06:32:30;;;;;;;4.18;0.80;;;12.00;99.90;;;;;;5053556;28;20035;-74
2024/01/24 06:34:56;;;;;;;2.38;0.85;;;;;;;;;;5033828;28;20585;-72
2024/01/24 06:37:27;;;;;;;1.90;0.90;;;;;;;;;;5053055;28;20033;-74
2024/01/24 06:39:54;;;;;;;4.20;0.95;;;12.10;99.90;;;;;;5033526;28;20025;-73
2024/01/24 06:42:20;;;;;;;3.15;0.68;;;12.10;99.90;;;;;;5045166;28;20092;-73
2024/01/24 06:44:46;;;;;;;2.08;0.82;;;12.10;99.90;;;;;;5051810;28;20033;-73
2024/01/24 06:47:11;;;;;;;1.85;0.80;;;12.10;99.90;;;;;;5034703;28;20486;-73
2024/01/24 06:49:37;;;;;;;2.38;0.70;;;12.10;99.90;;;;;;5047387;28;20040;-73
2024/01/24 06:52:03;;;;;;;5.85;0.90;;;12.10;99.90;;;;;;5052300;28;20024;-83
2024/01/24 06:54:29;;;;;;;2.15;0.80;;;12.10;99.90;;;;;;5050452;28;20441;-78
2024/01/24 06:56:54;;;;;;;3.25;1.35;;;12.00;99.90;;;;;;5046770;28;20248;-73
2024/01/24 06:59:20;;;;;;;3.70;1.00;;;11.80;99.90;;;;;;5050807;28;20029;-73
2024/01/24 07:01:46;;;;;;;3.72;0.98;;;11.80;99.90;;;;;;5051502;28;20540;-72
2024/01/24 07:04:12;;;;;;;3.88;1.35;;;11.70;99.90;;;;;;5047240;28;20043;-73
2024/01/24 07:06:37;;;;;;;5.53;1.23;;;11.60;99.90;;;;;;5051515;28;20498;-73
2024/01/24 07:09:03;;;;;;;5.03;0.98;;;11.60;99.90;;;;;;5051187;28;20104;-72
2024/01/24 07:11:29;;;;;;;7.32;1.17;;;11.60;99.90;;;;;;5051953;28;20036;-79
2024/01/24 07:13:54;;;;;;;4.88;1.20;;;11.70;99.90;;;;;;5051072;28;20371;-78
2024/01/24 07:16:20;;;;;;;4.45;1.23;;;11.70;99.90;;;;;;5043880;28;20036;-74
2024/01/24 07:18:46;;;;;;;2.17;0.98;;;11.80;99.90;;;;;;5039924;28;20051;-75
2024/01/24 07:21:14;;;;;;;3.67;0.70;;;11.90;99.90;;;;;;5057287;28;20040;-81
2024/01/24 07:23:40;;;;;;;2.85;0.60;;;12.00;99.90;;;;;;4996503;28;20085;-78
2024/01/24 07:26:06;;;;;;;3.78;0.90;;;12.00;99.90;;;;;;5052689;28;20536;-81
2024/01/24 07:28:32;;;;;;;4.88;0.80;;;12.10;99.90;;;;;;5038479;28;20533;-79
2024/01/24 07:30:57;;;;;;;4.38;0.90;;;12.10;99.90;;;;;;5025685;28;20025;-80
2024/01/24 07:33:23;;;;;;;4.40;1.38;;;12.10;99.90;;;;;;5027282;28;20040;-79
2024/01/24 07:35:49;;;;;;;1.80;0.80;;;12.10;99.90;;;;;;5051526;28;20037;-79
2024/01/24 07:38:14;;;;;;;2.50;1.00;;;12.10;99.90;;;;;;5051902;28;20029;-79
2024/01/24 07:40:40;;;;;;;3.55;0.85;;;12.20;99.90;;;;;;5033220;28;20031;-84
2024/01/24 07:43:06;;;;;;;3.15;0.90;;;12.20;99.90;;;;;;5044589;28;20032;-84
2024/01/24 07:45:32;;;;;;;3.33;0.73;;;12.20;99.90;;;;;;5045667;28;20024;-85
2024/01/24 07:47:57;;;;;;;1.83;1.02;;;12.20;99.90;;;;;;5051226;28;20854;-85
2024/01/24 07:50:27;;;;;;;5.10;1.02;;;12.20;99.90;;;;;;5025582;28;20573;-84
2024/01/24 07:52:53;;;;;;;4.57;0.87;;;;;;;;;;5050734;28;20057;-82
2024/01/24 07:55:19;;;;;;;2.53;0.77;;;;;;;;;;5033231;28;20668;-82
2024/01/24 07:57:45;;;;;;;1.40;0.70;;;;;;;;;;5026959;28;20120;-78
2024/01/24 08:00:16;;;;;;;2.75;0.98;;;;;;;;;;5031688;28;20045;-75
2024/01/24 08:02:45;;;;;;;1.77;0.68;;;;;;;;;;5036376;28;20017;-75
2024/01/24 08:05:14;;;;;;;2.00;0.65;;;;;;;;;;5050915;28;20033;-75
2024/01/24 08:07:41;;;;;;;2.00;0.70;;;;;;;;;;5050133;28;20025;-76
2024/01/24 08:10:10;;;;;;;4.00;0.75;;;;;;;;;;5050558;28;20096;-75
2024/01/24 08:12:37;;;;;;;1.52;0.55;;;;;;;;;;5048401;28;20068;-76
2024/01/24 08:15:05;;;;;;;1.42;0.50;;;;;;;;;;5045899;28;20048;-76
2024/01/24 08:17:31;;;;;;;1.17;0.30;;;;;;;;;;5048489;28;20035;-75
2024/01/24 08:19:58;;;;;;;1.65;0.63;;;;;;;;;;5049133;28;20029;-75
2024/01/24 08:22:24;;;;;;;1.52;0.40;;;;;;;;;;5049501;28;20056;-78
2024/01/24 08:24:50;;;;;;;2.05;0.40;;;;;;;;;;5031386;28;20514;-74
2024/01/24 08:27:17;;;;;;;1.77;0.40;;;;;;;;;;5025764;28;20032;-75
2024/01/24 08:29:43;;;;;;;0.40;0.40;;;;;;;;;;5035789;28;20024;-75
2024/01/24 08:32:10;;;;;;;1.48;0.40;;;;;;;;;;5046714;28;20039;-84
2024/01/24 08:34:36;;;;;;;0.68;0.20;;;;;;;;;;5049191;28;20029;-80
2024/01/24 08:37:02;;;;;;;0.95;0.40;;;;;;;;;;5053939;28;20044;-81
2024/01/24 08:39:28;;;;;;;0.32;0.30;;;;;;;;;;5049964;28;20056;-80
2024/01/24 08:41:54;;;;;;;0.30;0.30;;;;;;;;;;5049629;28;20488;-81
2024/01/24 08:44:20;;;;;;;0.75;0.30;;;;;;;;;;5032126;28;20036;-80
2024/01/24 08:46:48;;;;;;;0.40;0.30;;;;;;;;;;5049787;28;20048;-81
2024/01/24 08:49:15;;;;;;;1.00;0.40;;;;;;;;;;5050393;28;20041;-81
2024/01/24 08:51:41;;;;;;;0.30;0.30;;;;;;;;;;5040765;28;20032;-79
2024/01/24 08:54:08;;;;;;;1.45;0.40;;;;;;;;;;5045436;28;20029;-72
2024/01/24 08:56:34;;;;;;;0.25;0.20;;;;;;;;;;5041097;28;20029;-73
2024/01/24 08:59:00;;;;;;;0.32;0.20;;;;;;;;;;5029827;28;20040;-73
2024/01/24 09:01:27;;;;;;;0.10;0.10;;;;;;;;;;5031420;28;20434;-74
2024/01/24 09:03:53;;;;;;;0.40;0.38;;;;;;;;;;5047194;28;20482;-74
2024/01/24 09:06:21;;;;;;;2.33;0.20;;;;;;;;;;5049410;28;20025;-74
2024/01/24 09:08:53;;;;;;;0.50;0.13;;;;;;;;;;5048130;28;20116;-75
2024/01/24 09:11:19;;;;;;;0.10;0.10;;;;;;;;;;5044824;28;20067;-75
2024/01/24 09:13:49;;;;;;;2.75;0.55;;;;;;;;;;5041248;28;20033;-75
2024/01/24 09:16:16;;;;;;;0.70;0.30;;;;;;;;;;5028147;28;20533;-74
2024/01/24 09:18:45;;;;;;;0.70;0.30;;;13.70;99.90;;;;;;5048963;28;20386;-75
2024/01/24 09:21:10;;;;;;;0.20;0.20;;;13.70;99.90;;;;;;5039877;28;20027;-74
2024/01/24 09:23:36;;;;;;;1.85;0.40;;;13.70;99.90;;;;;;5047903;28;20033;-74
2024/01/24 09:26:05;;;;;;;1.50;0.13;;;13.60;99.90;;;;;;5031569;28;20049;-74
2024/01/24 09:28:30;;;;;;;0.20;0.10;;;13.70;99.90;;;;;;5039654;28;20065;-74
2024/01/24 09:30:56;;;;;;;0.30;0.30;;;13.80;99.90;;;;;;5027140;28;20108;-73
2024/01/24 09:33:23;;;;;;;0.15;0.15;;;13.80;99.90;;;;;;5048526;28;20024;-74
2024/01/24 09:35:49;;;;;;;0.32;0.20;;;13.70;99.90;;;;;;5041811;28;20028;-74
2024/01/24 09:38:15;;;;;;;0.93;0.50;;;13.70;99.90;;;;;;5044344;28;20033;-73
2024/01/24 09:40:42;;;;;;;0.90;0.20;;;13.60;99.90;;;;;;5048522;28;20021;-74
2024/01/24 09:43:09;;;;;;;0.20;0.20;;;13.60;99.90;;;;;;5049312;28;20021;-74
2024/01/24 09:45:42;;;;;;;0.90;0.43;;;13.60;99.90;;;;;;5049195;28;20119;-74
2024/01/24 09:48:09;;;;;;;0.70;0.20;;;13.50;99.90;;;;;;5043702;28;20025;-74
2024/01/24 09:50:36;;;;;;;1.20;0.30;;;13.40;99.90;;;;;;5047742;28;20029;-74
2024/01/24 09:53:07;;;;;;;0.57;0.10;;;13.30;99.90;;;;;;5047645;28;20032;-74
2024/01/24 09:55:34;;;;;;;0.30;0.10;;;13.30;99.90;;;;;;5032017;28;20039;-73
2024/01/24 09:58:00;;;;;;;0.98;0.10;;;13.30;99.90;;;;;;5019146;28;20137;-75
2024/01/24 10:00:25;;;;;;;0.20;0.17;;;13.40;99.90;;;;;;5031618;28;20397;-76
2024/01/24 10:02:51;;;;;;;0.40;0.20;;;13.40;99.90;;;;;;5039063;28;20100;-75
2024/01/24 10:05:18;;;;;;;0.10;0.10;;;13.40;99.90;;;;;;5031077;28;20032;-76
2024/01/24 10:07:44;;;;;;;0.63;0.10;;;13.40;99.90;;;;;;5033852;28;20029;-74
2024/01/24 10:10:12;;;;;;;0.20;0.10;;;13.40;99.90;;;;;;5053574;28;20024;-72
2024/01/24 10:12:41;;;;;;;0.47;0.20;;;13.40;99.90;;;;;;5034117;28;20060;-75
2024/01/24 10:15:08;;;;;;;0.40;0.10;;;13.50;99.90;;;;;;5030432;28;20034;-73
2024/01/24 10:17:33;;;;;;;0.22;0.22;;;13.60;99.90;;;;;;5044358;28;20092;-75
2024/01/24 10:20:00;;;;;;;0.30;0.30;;;13.60;99.90;;;;;;5033371;28;20053;-76
2024/01/24 10:22:26;;;;;;;0.45;0.20;;;13.70;99.90;;;;;;5032930;28;20490;-74
2024/01/24 10:24:55;;;;;;;1.25;0.20;;;13.70;99.90;;;;;;5051312;28;20401;-75
2024/01/24 10:27:22;;;;;;;0.32;0.20;;;13.70;99.90;;;;;;5045319;28;20031;-75
2024/01/24 10:29:47;;;;;;;0.75;0.50;;;13.70;99.90;;;;;;5051415;28;20560;-75
2024/01/24 10:32:13;;;;;;;0.10;0.10;;;13.60;99.90;;;;;;5052869;28;20113;-74
2024/01/24 10:34:39;;;;;;;0.77;0.47;;;13.60;99.90;;;;;;5025071;28;20033;-74
2024/01/24 10:37:08;;;;;;;0.75;0.20;;;13.70;99.90;;;;;;5052745;28;20028;-75
2024/01/24 10:39:35;;;;;;;1.13;0.20;;;13.80;99.90;;;;;;5041317;28;20128;-74
2024/01/24 10:42:08;;;;;;;0.70;0.22;;;13.80;99.90;;;;;;5038688;28;20104;-75
2024/01/24 10:44:42;;;;;;;0.77;0.20;;;;;;;;;;5033169;28;20032;-74
2024/01/24 10:47:09;;;;;;;1.45;0.22;;;;;;;;;;5052256;28;20100;-74
2024/01/24 10:49:35;;;;;;;0.68;0.30;;;;;;;;;;5033735;28;20021;-75
2024/01/24 10:52:01;;;;;;;0.20;0.15;;;;;;;;;;5046104;28;20026;-75
2024/01/24 10:54:30;;;;;;;1.08;0.20;;;;;;;;;;5049272;28;20036;-76
2024/01/24 10:56:58;;;;;;;0.75;0.20;;;;;;;;;;5038260;28;20509;-74
2024/01/24 10:59:27;;;;;;;0.22;0.22;;;14.50;99.90;;;;;;5051577;28;20045;-74
2024/01/24 11:01:53;;;;;;;0.47;0.13;;;14.60;99.90;;;;;;5045027;28;20040;-74
2024/01/24 11:04:21;;;;;;;2.33;0.30;;;14.60;99.90;;;;;;5051319;28;20017;-75
2024/01/24 11:06:51;;;;;;;0.38;0.20;;;14.50;99.90;;;;;;5033330;28;20444;-74
2024/01/24 11:09:40;;;;;;;0.68;0.28;;;14.40;99.90;;;;;;5051550;28;20373;-74
2024/01/24 11:12:06;;;;;;;2.33;0.30;;;14.00;99.90;;;;;;5045553;28;20029;-74
2024/01/24 11:14:33;;;;;;;0.65;0.30;;;13.60;99.90;;;;;;5047446;28;20037;-75
2024/01/24 11:17:00;;;;;;;1.45;0.25;;;13.30;99.90;;;;;;5054405;28;20044;-76
2024/01/24 11:19:28;;;;;;;1.25;0.75;;;13.00;99.90;;;;;;5054034;28;20025;-75
2024/01/24 11:22:00;;;;;;;1.10;0.80;;;12.80;99.90;;;;;;5033586;28;20398;-75
2024/01/24 11:24:40;;;;;;;0.93;0.75;;;12.50;99.90;;;;;;5051121;28;20375;-74
2024/01/24 11:27:35;;;;;;;1.10;0.35;;;12.40;99.90;;;;;;5051077;28;20044;-75
2024/01/24 11:30:25;;;;;;;0.20;0.20;;;12.10;99.90;;;;;;5027075;28;20073;-74
2024/01/24 11:32:51;;;;;;;1.95;0.32;;;12.10;99.90;;;;;;5057734;28;20042;-75
2024/01/24 11:35:47;;;;;;;1.13;0.28;;;12.00;99.90;;;;;;5071797;28;20024;-73
2024/01/24 11:38:28;;;;;;;0.95;0.30;;;12.00;99.90;;;;;;4986521;28;20440;-73
2024/01/24 11:41:10;;;;;;;1.17;0.40;;;11.90;99.90;;;;;;4988993;28;20116;-74
2024/01/24 11:43:36;;;;;;;0.55;0.30;;;11.90;99.90;;;;;;4972645;28;20018;-82
2024/01/24 11:46:03;;;;;;;3.90;0.73;;;12.00;99.90;;;;;;4990072;28;20180;-81
2024/01/24 11:48:31;;;;;;;1.08;0.50;;;12.10;99.90;;;;;;4988854;28;20113;-80
2024/01/24 11:50:58;;;;;;;0.40;0.30;;;12.30;99.90;;;;;;4989896;28;20030;-82
2024/01/24 11:53:25;;;;;;;1.40;0.63;;;12.30;99.90;;;;;;4989527;28;20065;-78
2024/01/24 11:55:54;;;;;;;1.48;0.70;;;12.30;99.90;;;;;;4989301;28;20512;-79
2024/01/24 11:58:26;;;;;;;2.42;0.70;;;12.20;99.90;;;;;;4989842;28;20488;-79
2024/01/24 12:00:53;;;;;;;1.50;0.50;;;12.20;99.90;;;;;;4989712;28;20033;-79
2024/01/24 12:03:20;;;;;;;6.95;1.38;;;12.20;99.90;;;;;;4988928;28;20105;-82
2024/01/24 12:05:46;;;;;;;2.15;1.17;;;12.10;99.90;;;;;;4989583;28;20140;-81
2024/01/24 12:08:12;;;;;;;2.10;0.60;;;12.20;99.90;;;;;;4989625;28;20476;-81
2024/01/24 12:10:38;;;;;;;1.00;0.40;;;12.30;99.90;;;;;;4996833;28;20108;-79
2024/01/24 12:13:06;;;;;;;2.95;0.40;;;12.50;99.90;;;;;;4989476;28;20022;-78
2024/01/24 12:15:35;;;;;;;2.38;0.47;;;12.60;99.90;;;;;;5044253;28;20214;-79
2024/01/24 12:18:22;;;;;;;3.97;0.53;;;12.80;99.90;;;;;;5050142;28;20128;-76
2024/01/24 12:20:49;;;;;;;2.58;0.63;;;12.70;99.90;;;;;;5064012;28;20036;-78
2024/01/24 12:23:17;;;;;;;2.53;0.52;;;12.70;99.90;;;;;;5070793;28;20090;-76
2024/01/24 12:25:43;;;;;;;3.35;0.70;;;12.70;99.90;;;;;;5070836;28;20036;-77
2024/01/24 12:28:10;;;;;;;1.17;0.50;;;12.60;99.90;;;;;;5055091;28;20025;-81
2024/01/24 12:30:36;;;;;;;1.67;0.43;;;12.70;99.90;;;;;;5075403;28;20109;-76
2024/01/24 12:33:03;;;;;;;3.00;0.82;;;12.80;99.90;;;;;;5071066;28;20063;-77
2024/01/24 12:35:29;;;;;;;2.22;0.50;;;12.80;99.90;;;;;;5070794;28;20066;-76
2024/01/24 12:38:04;;;;;;;3.75;0.50;;;12.90;99.90;;;;;;5063220;28;20147;-77
2024/01/24 12:40:31;;;;;;;1.00;0.47;;;13.00;99.90;;;;;;5069637;28;20036;-78
2024/01/24 12:42:58;;;;;;;2.88;0.45;;;13.10;99.90;;;;;;5073941;28;20073;-77
2024/01/24 12:45:26;;;;;;;2.50;0.60;;;13.10;99.90;;;;;;5051022;28;20367;-76
2024/01/24 12:47:56;;;;;;;2.47;0.80;;;13.30;99.90;;;;;;5069209;28;20024;-77
2024/01/24 12:50:23;;;;;;;1.30;0.40;;;13.40;99.90;;;;;;5052977;28;20029;-77
2024/01/24 12:52:49;;;;;;;1.58;0.40;;;13.50;99.90;;;;;;5069885;28;20031;-76
2024/01/24 12:55:15;;;;;;;1.55;0.43;;;13.70;99.90;;;;;;5048612;28;20032;-79
2024/01/24 12:57:45;;;;;;;4.63;0.65;;;13.90;99.90;;;;;;5051472;28;20527;-79
2024/01/24 13:00:11;;;;;;;4.57;0.73;;;14.00;99.90;;;;;;5070664;28;20044;-77
2024/01/24 13:02:40;;;;;;;1.35;0.40;;;14.10;99.90;;;;;;5069615;28;20409;-78
2024/01/24 13:05:07;;;;;;;5.05;0.85;;;14.10;99.90;;;;;;5070357;28;20504;-78
2024/01/24 13:07:33;;;;;;;4.55;0.90;;;14.10;99.90;;;;;;5070492;28;20034;-77
2024/01/24 13:09:59;;;;;;;3.97;0.90;;;14.10;99.90;;;;;;5051026;28;20416;-78